ЗЦ Москва

ЗЦ Москва включает в себя собственно РПИ Москва, а также соседний РПИ Самара.

Лого ЗЦ Москва
Руководитель региона

Ivan Skatov

Контакты

Инструкторы региона
Alexander Petrenko * (Controller)
Alexey Dobronravov (Instructor)
Anton Myglan (Senior Instructor)
Artem Smorchkov * (Controller)
Dmitry Markus (Instructor)
Ilya Pyankov (Instructor)
Ivan Chokenyuk * (Controller)
Ivan Skatov (Instructor)
Matvey Safyannikov (Instructor)
Maxim Tsygankov (Instructor)
Sergei Stetsko * (Controller)
Yulia Goryacheva (Instructor)
Включает в себя

РПИ Москва
РПИ Самара

Диспетчеры региона

Диспетчер Рейтинг Допуски *
Alexander Petrenko Controller UUWV_CTR, UWWW_CTR
Alexey Dobronravov Instructor UUWV_CTR, UWWW_CTR
Artem Smorchkov Controller UUWV_CTR, UWWW_CTR
Dmitry Markus Instructor UUWV_CTR, UWWW_CTR
George Kalandadze Controller UUWV_CTR
Ivan Skatov Instructor UUWV_CTR, UWWW_CTR
Karim Garifullin Instructor UUWV_CTR
Masha Stanchenko Controller UUWV_CTR
Maxim Tsygankov Instructor UUWV_CTR, UWWW_CTR
Robert Farber Controller UUWV_CTR
Sergei Stetsko Controller UWWW_CTR
Sergey Kovalenko Controller UUWV_CTR
Yulia Goryacheva Instructor UUWV_CTR, UWWW_CTR
Yury Koryagin Instructor UUWV_CTR, UWWW_CTR
Aleksandr Lysenko Student UUWW_GND, UUWW_TWR*
Alex Sapuck Student UUDD_GND
Alexander Mikhin Student UUDD_TWR*, UUDD_GND
Anton Beshenov Student UUEE_S_GND, UUEE_N_GND
Artem Morozov Student 2 UUEE_N_GND, UUEE_N_TWR*, UUEE_S_GND, UUEE_S_TWR*
Artem Smychkov Instructor UUDD_F_APP, UUWW_F_APP, UUEE_F_APP, UUDD_APP, UUWW_APP, UUEE_APP, UUDD_DEP, UUWW_DEP, UUEE_DEP
Arteom Alexeev Student UUEE_S_GND, UUEE_N_GND
Arthur Kurbangaleev Student UWWW_GND
Bogdan Mavrodiev Student UUDD_GND
Daniil Voinov Senior Student MSK_APP(UUEE+UUDD+UUWW)
Danil Basharov Student 2 UUDD_APP*, UUDD_DEP*, UUDD_TWR, UUDD_F_APP*
Denis Rybalkin Student UWWW_GND
Egor Goriachev Student UUEE_S_GND, UUEE_N_GND
Evgeniy Dedyaev Senior Student MSK_APP(UUWW+UUDD+UUEE)
Gleb Smolkov Student 2 UUEE_DEP*, UUEE_F_APP*, UUEE_APP*
Ignat Aligov Student UUWW_GND
Ivan Buev Senior Student MSK_APP(UUEE+UUWW+UUDD+UUDD+UUWW)
Kirill Kudryavtsev Student UUWW_GND
Kirill Ryabov Student 2 UUEE_F_APP*, UUEE_APP*, UUEE_DEP*
Kirill Shabunin Senior Controller UWKD_APP(UWKD+UWKJ+UWKS+UWKB+UWKE)
Mark Brenden Student UUDD_GND
Maxim Kalalenskiy Student UUWW_TWR*, UUWW_GND
Maxim Khromtsov Controller MSK_APP(UUEE+UUDD+UUWW)
Mikhail Kirillov Student UUEE_S_GND, UUEE_N_GND
Nick Smirnov Student 2 UUDD_F_APP*, UUEE_N_TWR, UUDD_APP*, UUEE_S_TWR, UUDD_DEP*, UUWW_TWR
Nikita Levin Student 2 UUEE_DEP*, UUEE_F_APP*, UUEE_APP*, UUWW_TWR
Pavel Sergienko Student 2 UUML_TWR
Pavel Yashin Student 2 UWKD_GND
Petr Koreshkov Student UUEE_N_GND, UUEE_S_GND
Sergey Isaev Student 2 UUEE_N_TWR, UUDD_APP*, UUDD_DEP*, UUEE_S_TWR, UUDD_F_APP*
Sergey Soshnikov Student UWWW_GND
Stanley Yorke Controller UUWW_DEP, UUWW_F_APP, UUWW_APP
Vladimir Kon Student UUDD_GND
Vsevolod Skryabin Student 2 UWOO_GND!!!
Vyacheslav Neklyudov Student 2 MSK_APP(UUEE+UUDD+UUWW), UUEE_N_TWR, UUEE_S_TWR
Yury Kompaniychenko Student 2 UUML_TWR!!!

Аэропорты региона

ICAO Город Название Погода
UUWW Москва Внуково UUWW 020200Z 24001MPS CAVOK 11/05 Q1023 R24/000070 NOSIG
UUDD Москва Домодедово UUDD 020200Z 33003MPS CAVOK 11/05 Q1023 R32L/CLRD60 NOSIG
UUBW Москва Жуковский UUBW 020200Z 31002MPS CAVOK 12/07 Q1023 R30/010060 NOSIG
UUMU Москва Чкаловский
UUEE Москва Шереметьево UUEE 020200Z 30002MPS CAVOK 12/05 Q1023 R06C/CLRD62 NOSIG
UWWW Самара Курумоч UWWW 020200Z 03003MPS CAVOK 12/08 Q1011 R33/CLRD60 NOSIG RMK QFE747/0997
UWUU Уфа Уфа UWUU 020200Z VRB01MPS CAVOK 11/10 Q1013 R14R/0///60 NOSIG
UUOB Белгород Белгород UUOB 020200Z 34003MPS CAVOK 10/05 Q1021 R29/010070 NOSIG
UUBP Брянск Брянск UUBP 020200Z 02001MPS CAVOK 11/06 Q1023 R16/CLRD70 NOSIG RMK QFE749/0999
UWKB Бугульма Бугульма
UUOO Воронеж Воронеж UUOO 020200Z 32005MPS CAVOK 09/05 Q1018 R30/010070 NOSIG RMK QFE750
UUBI Иваново Иваново
UWKJ Йошкар-Ола Йошкар-Ола
UWKD Казань Казань UWKD 020200Z 04004MPS CAVOK 14/10 Q1015 R11/70D NOSIG RMK QFE751/1002
UUBC Калуга Калуга UUBC 020200Z AUTO VRB01MPS 9999 // 08/06 Q1024 RMK QFE751/1001
UUOK Курск Курск UUOK 020200Z VRB01MPS CAVOK 08/05 Q1022 R30/090060 NOSIG RMK QFE747/0997
UUMO Москва Остафьево UUMO 020200Z VRB01MPS CAVOK 09/08 Q1023 R25/CLRD60 NOSIG RMK QFE752/1003
UWKE Нижнекамск Бегишево UWKE 020200Z 05004MPS CAVOK 13/12 Q1015 R03/090070 NOSIG RMK QFE744/0992
UWGG Нижний Новгород Стригино UWGG 020200Z 00000MPS CAVOK 10/09 Q1019 R36R/090070 NOSIG
UWOO Оренбург Оренбург UWOO 020200Z 06003MPS 9999 FEW040CB 17/07 Q1011 R26/////// NOSIG RMK QFE747/0997
UWOR Орск Орск UWOR 020200Z 32002MPS CAVOK 14/06 Q1011 R25/CLRD65 NOSIG RMK QFE735/0980
UWPP Пенза Пенза
UWPS Саранск Саранск UWPS 020200Z 01005MPS CAVOK 11/10 Q1014 R02/290555 NOSIG RMK QFE741
UWSG Саратов Гагарин UWSG 020200Z 35005MPS 9999 SCT009 SCT030CB 11/10 Q1008 R26/150068 NOSIG RMK QFE753/1004
UWSS Саратов Саратов
UWLL Ульяновск-УЛК Ульяновск UWLL 020200Z 33003MPS 310V010 CAVOK 14/13 Q1013 R02/190060 NOSIG RMK QFE748/0997
UWLW Ульяновск-УЛС Восточный UWLW 020200Z 04004MPS CAVOK 13/11 Q1013 R02/CLRD60 NOSIG RMK QFE753/1004
UWKS Чебоксары Чебоксары UWKS 020200Z 03003MPS CAVOK 13/08 Q1017 R06/010060 NOSIG RMK QFE747
UUMW Ватулино Ватулино
UUML Воскресенск Северка
UUDL Ярославль Туношна UUDL 020200Z 27001MPS CAVOK 09/08 Q1022 R23/010060 NOSIG RMK QFE758